Time;durP1;ratioP1;P1;durP2;ratioP2;P2;SDS_P1;SDS_P2;PMS_P1;PMS_P2;Temp;Humidity;BMP_temperature;BMP_pressure;BME280_temperature;BME280_humidity;BME280_pressure;Samples;Min_cycle;Max_cycle;Signal;HPM_P1;HPM_P2
2022/05/27 00:00:41;;;;;;;1.40;1.27;;;;;;;;;;5009368;28;20030;-71
2022/05/27 00:03:07;;;;;;;2.42;1.35;;;;;;;;;;5008189;28;20033;-72
2022/05/27 00:05:33;;;;;;;2.85;1.30;;;;;;;;;;5007729;28;20490;-71
2022/05/27 00:07:59;;;;;;;1.50;1.40;;;;;;;;;;5007983;28;20033;-71
2022/05/27 00:10:24;;;;;;;2.53;1.20;;;;;;;;;;5009226;28;20026;-71
2022/05/27 00:12:50;;;;;;;1.40;1.30;;;;;;;;;;5008066;28;20021;-71
2022/05/27 00:15:15;;;;;;;1.60;1.50;;;;;;;;;;5007760;28;20022;-72
2022/05/27 00:17:41;;;;;;;2.67;1.20;;;;;;;;;;5007412;28;20092;-72
2022/05/27 00:20:07;;;;;;;1.65;1.10;;;;;;;;;;5007795;28;20026;-72
2022/05/27 00:22:33;;;;;;;2.10;1.20;;;;;;;;;;5020875;28;20037;-72
2022/05/27 00:24:59;;;;;;;1.42;1.30;;;;;;;;;;5027404;28;20099;-71
2022/05/27 00:27:25;;;;;;;2.63;1.50;;;;;;;;;;5029290;28;20017;-72
2022/05/27 00:29:50;;;;;;;1.20;1.10;;;;;;;;;;5031423;28;20029;-70
2022/05/27 00:32:16;;;;;;;2.33;1.23;;;;;;;;;;5031361;28;20116;-71
2022/05/27 00:34:41;;;;;;;2.78;1.27;;;;;;;;;;5031455;28;20029;-73
2022/05/27 00:37:07;;;;;;;1.75;1.50;;;;;;;;;;5031588;28;20021;-73
2022/05/27 00:39:33;;;;;;;1.55;1.40;;;;;;;;;;5031411;28;20029;-72
2022/05/27 00:42:00;;;;;;;2.95;1.35;;;;;;;;;;5031410;28;20571;-71
2022/05/27 00:44:25;;;;;;;2.13;1.50;;;;;;;;;;5032430;28;20531;-72
2022/05/27 00:46:52;;;;;;;2.72;1.40;;;;;;;;;;5030914;28;20060;-72
2022/05/27 00:49:24;;;;;;;2.15;1.55;;;;;;;;;;5032186;28;20018;-72
2022/05/27 00:52:01;;;;;;;1.40;1.30;;;;;;;;;;5032533;28;20025;-72
2022/05/27 00:54:27;;;;;;;2.75;1.60;;;;;;;;;;5030519;28;20095;-71
2022/05/27 00:57:24;;;;;;;4.15;1.40;;;;;;;;;;5030814;28;20151;-70
2022/05/27 00:59:54;;;;;;;1.60;1.50;;;;;;;;;;5022881;28;20049;-71
2022/05/27 01:02:19;;;;;;;1.50;1.40;;;;;;;;;;5031180;28;20036;-72
2022/05/27 01:04:48;;;;;;;1.77;1.67;;;;;;;;;;5030543;28;20021;-72
2022/05/27 01:07:13;;;;;;;2.35;1.98;;;;;;;;;;5032079;28;20053;-72
2022/05/27 01:09:42;;;;;;;3.25;2.50;;;;;;;;;;5030433;28;20059;-72
2022/05/27 01:12:39;;;;;;;5.00;1.80;;;;;;;;;;5030525;28;20504;-71
2022/05/27 01:15:26;;;;;;;1.52;1.30;;;;;;;;;;5030599;28;20057;-72
2022/05/27 01:18:19;;;;;;;2.25;1.10;;;;;;;;;;5030176;28;20049;-72
2022/05/27 01:20:50;;;;;;;4.70;1.63;;;;;;;;;;5031403;28;20026;-73
2022/05/27 01:23:39;;;;;;;2.25;1.23;;;;;;;;;;5030402;28;20029;-74
2022/05/27 01:26:17;;;;;;;1.92;1.70;;;;;;;;;;5020623;28;20029;-74
2022/05/27 01:28:49;;;;;;;8.93;1.65;;;;;;;;;;5030244;28;20040;-74
2022/05/27 01:31:27;;;;;;;2.67;1.20;;;;;;;;;;5030700;28;20033;-73
2022/05/27 01:34:29;;;;;;;2.05;1.60;;;;;;;;;;5031855;28;20075;-74
2022/05/27 01:37:07;;;;;;;3.28;1.50;;;;;;;;;;5030698;28;20413;-75
2022/05/27 01:40:05;;;;;;;2.35;1.60;;;;;;;;;;5029252;28;20162;-74
2022/05/27 01:42:53;;;;;;;2.33;1.50;;;;;;;;;;5026890;28;20033;-74
2022/05/27 01:45:45;;;;;;;1.50;1.40;;;;;;;;;;5030297;28;20025;-75
2022/05/27 01:48:13;;;;;;;;;;;;;;;;;;5030764;28;20033;-74
2022/05/27 01:50:57;;;;;;;2.10;1.70;;;;;;;;;;5030975;28;19916;-74
2022/05/27 01:53:34;;;;;;;5.32;1.67;;;;;;;;;;5030105;28;20159;-73
2022/05/27 01:56:11;;;;;;;1.40;1.35;;;;;;;;;;5029825;28;20079;-73
2022/05/27 01:58:42;;;;;;;3.97;1.52;;;;;;;;;;5030834;28;20414;-74
2022/05/27 02:01:12;;;;;;;1.35;1.25;;;;;;;;;;5029554;28;20025;-74
2022/05/27 02:03:47;;;;;;;2.92;1.48;;;;;;;;;;5029384;28;20076;-74
2022/05/27 02:06:25;;;;;;;2.72;1.52;;;;;;;;;;5029607;28;20105;-74
2022/05/27 02:09:05;;;;;;;1.75;1.20;;;;;;;;;;5012802;28;20033;-73
2022/05/27 02:11:32;;;;;;;1.90;1.30;;;;;;;;;;5029681;28;20040;-73
2022/05/27 02:14:03;;;;;;;1.92;1.48;;;;;;;;;;5030900;28;20032;-74
2022/05/27 02:16:35;;;;;;;1.20;1.20;;;;;;;;;;5030185;28;20091;-74
2022/05/27 02:19:10;;;;;;;2.22;1.50;;;;;;;;;;5029211;28;20033;-74
2022/05/27 02:21:44;;;;;;;1.33;1.23;;;;;;;;;;5023263;28;20064;-74
2022/05/27 02:24:47;;;;;;;1.52;1.10;;;;;;;;;;5023817;28;20480;-74
2022/05/27 02:27:18;;;;;;;2.28;1.30;;;;;;;;;;5029187;28;20432;-74
2022/05/27 02:29:50;;;;;;;1.40;1.30;;;;;;;;;;5029072;28;20075;-75
2022/05/27 02:32:21;;;;;;;4.10;1.55;;;;;;;;;;5029519;28;20095;-75
2022/05/27 02:35:08;;;;;;;1.45;1.35;;;;;;;;;;5030877;28;20107;-73
2022/05/27 02:37:47;;;;;;;4.43;1.48;;;;;;;;;;5029052;28;20038;-75
2022/05/27 02:40:20;;;;;;;2.00;1.40;;;;;;;;;;5029252;28;20033;-75
2022/05/27 02:43:04;;;;;;;6.72;1.80;;;;;;;;;;5029096;28;20029;-75
2022/05/27 02:45:53;;;;;;;2.38;1.25;;;;;;;;;;5028933;28;20025;-74
2022/05/27 02:48:27;;;;;;;1.52;1.42;;;;;;;;;;5028669;28;20025;-74
2022/05/27 02:50:57;;;;;;;1.80;1.48;;;;;;;;;;5029777;28;20021;-74
2022/05/27 02:53:28;;;;;;;2.15;1.55;;;;;;;;;;5030518;28;20132;-74
2022/05/27 02:56:09;;;;;;;1.58;1.30;;;;;;;;;;5028679;28;20512;-74
2022/05/27 02:58:35;;;;;;;10.40;1.52;;;;;;;;;;5028436;28;20144;-74
2022/05/27 03:01:01;;;;;;;4.03;1.65;;;;;;;;;;5029976;28;20501;-75
2022/05/27 03:03:27;;;;;;;4.75;1.70;;;;;;;;;;5028634;28;20522;-74
2022/05/27 03:06:15;;;;;;;2.13;1.40;;;;;;;;;;5029601;28;20456;-74
2022/05/27 03:09:04;;;;;;;2.60;1.45;;;;;;;;;;5020168;28;20529;-74
2022/05/27 03:12:05;;;;;;;2.20;1.40;;;;;;;;;;5020074;28;20037;-74
2022/05/27 03:14:56;;;;;;;1.58;1.48;;;;;;;;;;5028321;28;20033;-74
2022/05/27 03:18:03;;;;;;;2.38;1.35;;;;;;;;;;5028315;28;20670;-73
2022/05/27 03:21:20;;;;;;;1.63;1.52;;;;;;;;;;5028919;28;20061;-74
2022/05/27 03:24:11;;;;;;;2.88;2.05;;;;;;;;;;5015770;28;20030;-74
2022/05/27 03:26:55;;;;;;;2.63;1.73;;;;;;;;;;5008728;28;20398;-74
2022/05/27 03:29:46;;;;;;;1.98;1.60;;;;;;;;;;5008698;28;20437;-73
2022/05/27 03:32:11;;;;;;;3.25;1.65;;;;;;;;;;5009993;28;20032;-73
2022/05/27 03:35:00;;;;;;;2.13;1.73;;;;;;;;;;5009548;28;20120;-74
2022/05/27 03:37:34;;;;;;;2.72;1.55;;;;;;;;;;5009453;28;20339;-74
2022/05/27 03:40:30;;;;;;;2.17;1.75;;;;;;;;;;5008229;28;20389;-75
2022/05/27 03:42:57;;;;;;;2.78;1.60;;;;;;;;;;5010098;28;20022;-75
2022/05/27 03:45:23;;;;;;;1.80;1.60;;;;;;;;;;5008191;28;20029;-74
2022/05/27 03:47:50;;;;;;;2.33;1.63;;;;;;;;;;5009514;28;20076;-74
2022/05/27 03:50:20;;;;;;;5.40;1.80;;;;;;;;;;5008142;28;20034;-75
2022/05/27 03:52:48;;;;;;;4.25;2.05;;;;;;;;;;5007978;28;20030;-75
2022/05/27 03:55:16;;;;;;;2.67;1.80;;;;;;;;;;5009357;28;20033;-75
2022/05/27 03:57:42;;;;;;;5.40;2.20;;;;;;;;;;5007900;28;20367;-75
2022/05/27 04:00:10;;;;;;;1.70;1.60;;;;;;;;;;5008229;28;20026;-75
2022/05/27 04:02:36;;;;;;;1.92;1.58;;;;;;;;;;5011543;28;20104;-75
2022/05/27 04:05:03;;;;;;;3.88;1.80;;;;;;;;;;5012791;28;20128;-74
2022/05/27 04:07:29;;;;;;;3.42;1.80;;;;;;;;;;5014258;28;20168;-74
2022/05/27 04:09:54;;;;;;;3.42;1.48;;;;;;;;;;5014091;28;20124;-75
2022/05/27 04:12:20;;;;;;;2.33;1.80;;;;;;;;;;5011964;28;20382;-75
2022/05/27 04:14:50;;;;;;;2.67;2.15;;;;;;;;;;5012915;28;20026;-75
2022/05/27 04:17:30;;;;;;;1.52;1.42;;;;;;;;;;5011365;28;20555;-74
2022/05/27 04:20:11;;;;;;;1.88;1.40;;;;;;;;;;5011761;28;20048;-75
2022/05/27 04:22:38;;;;;;;1.30;1.23;;;;;;;;;;4995115;28;20406;-75
2022/05/27 04:25:06;;;;;;;3.75;1.45;;;;;;;;;;5011953;28;20030;-75
2022/05/27 04:27:32;;;;;;;2.20;1.90;;;;;;;;;;4995182;28;20034;-75
2022/05/27 04:29:58;;;;;;;3.42;1.75;;;;;;;;;;5011257;28;20500;-75
2022/05/27 04:32:25;;;;;;;1.63;1.52;;;;;;;;;;5012813;28;20033;-74
2022/05/27 04:34:52;;;;;;;4.20;1.75;;;;;;;;;;5012947;28;20052;-75
2022/05/27 04:37:18;;;;;;;3.67;1.60;;;;;;;;;;5012837;28;20049;-75
2022/05/27 04:39:44;;;;;;;2.90;1.38;;;;;;;;;;5013238;28;20080;-74
2022/05/27 04:42:10;;;;;;;2.97;1.80;;;;;;;;;;5015898;28;20473;-74
2022/05/27 04:44:36;;;;;;;4.00;1.70;;;;;;;;;;5018767;28;20029;-75
2022/05/27 04:47:03;;;;;;;2.50;1.48;;;;;;;;;;5019524;28;20037;-76
2022/05/27 04:52:13;;;;;;;1.45;1.30;;;;;;;;;;5019063;28;20079;-75
2022/05/27 04:54:40;;;;;;;3.40;1.75;;;;;;;;;;5014956;28;20018;-74
2022/05/27 04:57:06;;;;;;;2.60;1.40;;;;;;;;;;4999402;28;20029;-76
2022/05/27 04:59:36;;;;;;;1.92;1.70;;;;;;;;;;5011610;28;20018;-75
2022/05/27 05:02:03;;;;;;;3.88;1.45;;;;;;;;;;5012102;28;20029;-74
2022/05/27 05:04:29;;;;;;;4.47;1.45;;;;;;;;;;5012559;28;20030;-77
2022/05/27 05:07:00;;;;;;;2.80;1.63;;;;;;;;;;5012641;28;20399;-75
2022/05/27 05:09:26;;;;;;;4.40;1.33;;;;;;;;;;5010006;28;20021;-74
2022/05/27 05:11:51;;;;;;;1.30;1.25;;;;;;;;;;5029090;28;20104;-75
2022/05/27 05:14:17;;;;;;;3.70;1.60;;;;;;;;;;5028979;28;20448;-74
2022/05/27 05:16:43;;;;;;;3.47;1.58;;;;;;;;;;5044721;28;20049;-74
2022/05/27 05:19:08;;;;;;;3.30;1.20;;;;;;;;;;5039447;28;20036;-74
2022/05/27 05:21:34;;;;;;;3.67;1.50;;;;;;;;;;5042676;28;20052;-73
2022/05/27 05:23:59;;;;;;;4.22;1.50;;;;;;;;;;5028339;28;20029;-76
2022/05/27 05:26:25;;;;;;;1.65;1.42;;;;;;;;;;5030116;28;20044;-75
2022/05/27 05:28:51;;;;;;;4.95;1.50;;;;;;;;;;5030936;28;20079;-75
2022/05/27 05:31:17;;;;;;;1.60;1.42;;;;;;;;;;5029900;28;20033;-75
2022/05/27 05:33:43;;;;;;;2.13;1.60;;;;;;;;;;5030289;28;20029;-72
2022/05/27 05:36:10;;;;;;;2.58;1.10;;;;;;;;;;5030776;28;20040;-75
2022/05/27 05:38:36;;;;;;;5.85;1.40;;;;;;;;;;5029966;28;20030;-74
2022/05/27 05:41:01;;;;;;;5.25;1.60;;;;;;;;;;5030141;28;20319;-72
2022/05/27 05:43:27;;;;;;;2.03;1.50;;;;;;;;;;5029322;28;20642;-75
2022/05/27 05:45:53;;;;;;;2.58;1.27;;;;;;;;;;5029241;28;20021;-76
2022/05/27 05:48:19;;;;;;;5.18;1.88;;;;;;;;;;5030440;28;20021;-73
2022/05/27 05:50:46;;;;;;;2.65;1.30;;;;;;;;;;5026685;28;20075;-73
2022/05/27 05:53:11;;;;;;;4.93;1.60;;;;;;;;;;5028847;28;20029;-73
2022/05/27 05:55:37;;;;;;;1.42;1.30;;;;;;;;;;5028967;28;20036;-74
2022/05/27 05:58:03;;;;;;;2.95;1.45;;;;;;;;;;5027064;28;20026;-75
2022/05/27 06:00:29;;;;;;;2.72;1.70;;;;;;;;;;5039384;28;20031;-74
2022/05/27 06:02:55;;;;;;;6.55;1.55;;;;;;;;;;5035069;28;20499;-74
2022/05/27 06:05:21;;;;;;;2.90;1.60;;;;;;;;;;5031372;28;20074;-73
2022/05/27 06:07:48;;;;;;;5.03;1.55;;;;;;;;;;5042068;28;20017;-73
2022/05/27 06:10:16;;;;;;;3.13;1.50;;;;;;;;;;5030209;28;20025;-73
2022/05/27 06:12:41;;;;;;;3.55;1.98;;;;;;;;;;5023758;28;20062;-73
2022/05/27 06:15:11;;;;;;;5.15;1.55;;;;;;;;;;5047153;28;20029;-73
2022/05/27 06:17:37;;;;;;;2.33;1.60;;;;;;;;;;5012475;28;20041;-72
2022/05/27 06:20:05;;;;;;;4.28;1.40;;;;;;;;;;5025956;28;20103;-73
2022/05/27 06:22:31;;;;;;;6.07;1.13;;;;;;;;;;5038516;28;20554;-74
2022/05/27 06:25:00;;;;;;;2.85;1.33;;;;;;;;;;5035610;28;20029;-75
2022/05/27 06:27:27;;;;;;;2.42;1.17;;;;;;;;;;5012995;28;20148;-75
2022/05/27 06:34:23;;;;;;;6.13;1.25;;;;;;;;;;5034308;28;20104;-74
2022/05/27 06:35:40;;;;;;;3.40;1.67;;;;;;;;;;5026826;28;20180;-76
2022/05/27 06:38:07;;;;;;;4.05;1.85;;;;;;;;;;5032898;28;20021;-73
2022/05/27 06:40:33;;;;;;;4.07;1.75;;;;;;;;;;5026293;28;20091;-74
2022/05/27 06:42:59;;;;;;;2.58;1.63;;;;;;;;;;5028067;28;20025;-75
2022/05/27 06:45:25;;;;;;;5.45;1.92;;;;;;;;;;5012402;28;20029;-76
2022/05/27 06:47:51;;;;;;;9.25;1.60;;;;;;;;;;5032026;28;20309;-73
2022/05/27 06:50:16;;;;;;;2.83;1.20;;;;;;;;;;5014530;28;20573;-77
2022/05/27 06:52:43;;;;;;;3.78;1.92;;;;;;;;;;5057401;28;20049;-75
2022/05/27 06:55:15;;;;;;;6.22;1.80;;;;;;;;;;5030539;28;20124;-77
2022/05/27 06:57:42;;;;;;;3.60;1.55;;;;;;;;;;5029636;28;20289;-74
2022/05/27 07:00:10;;;;;;;3.03;1.35;;;;;;;;;;5033127;28;20044;-75
2022/05/27 07:02:36;;;;;;;4.10;1.50;;;;;;;;;;5029643;28;20108;-74
2022/05/27 07:05:01;;;;;;;5.07;1.30;;;;;;;;;;5030591;28;20108;-75
2022/05/27 07:07:30;;;;;;;3.22;1.80;;;;;;;;;;5028319;28;20317;-74
2022/05/27 07:09:56;;;;;;;2.95;1.27;;;;;;;;;;5026676;28;20103;-74
2022/05/27 07:12:21;;;;;;;2.60;1.30;;;;;;;;;;5024489;28;20488;-74
2022/05/27 07:14:47;;;;;;;4.90;1.63;;;;;;;;;;5045993;28;20103;-74
2022/05/27 07:17:12;;;;;;;6.57;1.60;;;;;;;;;;5029977;28;20498;-75
2022/05/27 07:19:40;;;;;;;4.57;1.75;;;;;;;;;;5030029;28;20029;-76
2022/05/27 07:22:07;;;;;;;3.67;1.30;;;;;;;;;;5026883;28;20438;-74
2022/05/27 07:24:33;;;;;;;4.18;1.58;;;;;;;;;;5026401;28;20033;-76
2022/05/27 07:26:58;;;;;;;1.92;1.70;;;;;;;;;;5028780;28;20029;-74
2022/05/27 07:29:24;;;;;;;5.32;1.75;;;;;;;;;;5030458;28;20563;-74
2022/05/27 07:31:49;;;;;;;3.78;1.77;;;;;;;;;;5025078;28;20034;-73
2022/05/27 07:34:16;;;;;;;5.70;1.65;;;;;;;;;;5028590;28;20029;-76
2022/05/27 07:36:42;;;;;;;4.57;2.22;;;;;;;;;;5021656;28;20920;-75
2022/05/27 07:39:08;;;;;;;5.55;1.88;;;;;;;;;;5034938;28;20417;-75
2022/05/27 07:41:34;;;;;;;2.72;1.50;;;;;;;;;;5024699;28;20084;-75
2022/05/27 07:44:01;;;;;;;4.05;1.40;;;;;;;;;;5025743;28;20033;-74
2022/05/27 07:46:30;;;;;;;3.47;1.77;;;;;;;;;;5027789;28;20049;-75
2022/05/27 07:48:57;;;;;;;2.55;1.60;;;;;;;;;;5025227;28;20021;-75
2022/05/27 07:51:23;;;;;;;7.93;2.00;;;;;;;;;;5026007;28;20083;-77
2022/05/27 07:53:48;;;;;;;2.70;1.40;;;;;;;;;;5025250;28;20030;-76
2022/05/27 07:56:15;;;;;;;3.30;1.65;;;;;;;;;;5025740;28;20193;-75
2022/05/27 07:58:41;;;;;;;9.43;2.03;;;;;;;;;;5025753;28;20096;-72
2022/05/27 08:01:07;;;;;;;4.30;1.90;;;;;;;;;;5020208;28;20025;-74
2022/05/27 08:03:34;;;;;;;5.68;1.60;;;;;;;;;;5027072;28;20341;-74
2022/05/27 08:06:00;;;;;;;4.95;1.58;;;;;;;;;;5043912;28;20639;-74
2022/05/27 08:08:29;;;;;;;5.72;1.70;;;;;;;;;;5044240;28;20074;-73
2022/05/27 08:10:54;;;;;;;4.75;1.83;;;;;;;;;;5040439;28;20173;-75
2022/05/27 08:13:20;;;;;;;2.10;1.45;;;;;;;;;;5026434;28;20148;-74
2022/05/27 08:15:46;;;;;;;5.50;1.73;;;;;;;;;;5025449;28;20452;-75
2022/05/27 08:18:13;;;;;;;5.10;1.60;;;;;;;;;;5023787;28;20037;-75
2022/05/27 08:20:40;;;;;;;3.58;1.52;;;;;;;;;;5024150;28;20037;-75
2022/05/27 08:23:07;;;;;;;8.65;1.75;;;;;;;;;;5019736;28;20390;-75
2022/05/27 08:25:33;;;;;;;8.32;2.08;;;;;;;;;;5010429;28;20028;-74
2022/05/27 08:27:59;;;;;;;5.55;1.38;;;;;;;;;;5023276;28;20021;-75
2022/05/27 08:30:28;;;;;;;4.00;1.88;;;;;;;;;;5021885;28;20022;-74
2022/05/27 08:32:55;;;;;;;5.75;1.38;;;;;;;;;;5024966;28;20033;-74
2022/05/27 08:38:14;;;;;;;3.00;1.27;;;;;;;;;;5025231;28;20072;-75
2022/05/27 08:41:05;;;;;;;4.55;1.40;;;;;;;;;;5008464;28;20095;-74
2022/05/27 08:43:58;;;;;;;8.45;1.75;;;;;;;;;;5026077;28;20327;-73
2022/05/27 08:46:59;;;;;;;4.53;1.65;;;;;;;;;;5027274;28;20026;-75
2022/05/27 08:49:34;;;;;;;6.47;1.73;;;;;;;;;;5030301;28;20066;-74
2022/05/27 08:52:14;;;;;;;1.80;0.80;;;;;;;;;;5034819;28;20098;-74
2022/05/27 08:54:54;;;;;;;3.05;1.33;;;;;;;;;;5033151;28;20057;-75
2022/05/27 09:00:14;;;;;;;2.70;1.25;;;;;;;;;;5038991;28;20041;-75
2022/05/27 09:02:42;;;;;;;2.15;1.15;;;;;;;;;;5021760;28;20026;-74
2022/05/27 09:05:23;;;;;;;3.65;1.50;;;;;;;;;;5043109;28;20029;-74
2022/05/27 09:07:58;;;;;;;4.22;1.60;;;;;;;;;;5021543;28;20013;-74
2022/05/27 09:10:56;;;;;;;3.67;1.25;;;;;;;;;;5035522;28;20031;-74
2022/05/27 09:13:30;;;;;;;3.25;1.45;;;;;;;;;;5031271;28;20024;-75
2022/05/27 09:16:11;;;;;;;2.13;1.15;;;;;;;;;;5035264;28;20048;-73
2022/05/27 09:19:01;;;;;;;5.18;1.45;;;;;;;;;;5028366;28;20060;-75
2022/05/27 09:21:43;;;;;;;1.65;1.15;;;;;;;;;;5028257;28;20068;-75
2022/05/27 09:24:41;;;;;;;5.03;1.30;;;;;;;;;;5025881;28;20032;-76
2022/05/27 09:27:08;;;;;;;3.55;1.30;;;;;;;;;;5028670;28;20397;-75
2022/05/27 09:29:50;;;;;;;5.25;1.40;;;;;;;;;;5039658;28;20057;-76
2022/05/27 09:32:30;;;;;;;3.83;2.03;;;;;;;;;;5037525;28;20032;-76
2022/05/27 09:35:02;;;;;;;2.13;1.40;;;;;;;;;;5030357;28;20060;-74
2022/05/27 09:37:53;;;;;;;;;;;;;;;;;;5026744;28;20029;-75
2022/05/27 09:40:23;;;;;;;1.73;1.52;;;;;;;;;;5036820;28;19916;-75
2022/05/27 09:43:01;;;;;;;6.07;1.20;;;;;;;;;;5032951;28;20030;-76
2022/05/27 09:45:27;;;;;;;4.50;1.27;;;;;;;;;;5031407;28;20388;-76
2022/05/27 09:47:58;;;;;;;10.50;1.42;;;;;;;;;;5042603;28;20021;-75
2022/05/27 09:50:46;;;;;;;3.88;1.27;;;;;;;;;;5030432;28;20485;-74
2022/05/27 09:53:16;;;;;;;5.35;1.20;;;;;;;;;;5032187;28;20041;-75
2022/05/27 09:55:54;;;;;;;2.63;1.63;;;;;;;;;;5032499;28;20111;-76
2022/05/27 09:58:30;;;;;;;2.40;1.20;;;;;;;;;;5028616;28;20037;-75
2022/05/27 10:00:57;;;;;;;2.03;1.38;;;;;;;;;;5028428;28;20484;-75
2022/05/27 10:03:25;;;;;;;3.63;1.40;;;;;;;;;;5042283;28;20245;-75
2022/05/27 10:05:53;;;;;;;2.83;1.20;;;;;;;;;;5035389;28;20120;-77
2022/05/27 10:08:57;;;;;;;3.00;1.30;;;;;;;;;;5017435;28;20036;-75
2022/05/27 10:11:28;;;;;;;2.90;1.45;;;;;;;;;;5021055;28;20033;-74
2022/05/27 10:14:09;;;;;;;2.33;1.30;;;;;;;;;;5028582;28;20029;-75
2022/05/27 10:16:35;;;;;;;4.07;1.25;;;;;;;;;;5031417;28;20050;-75
2022/05/27 10:19:08;;;;;;;1.50;1.10;;;;;;;;;;5031996;28;20481;-76
2022/05/27 10:22:08;;;;;;;3.13;1.60;;;;;;;;;;5027389;28;20055;-75
2022/05/27 10:24:39;;;;;;;5.05;1.60;;;;;;;;;;5032883;28;20029;-75
2022/05/27 10:27:16;;;;;;;;;;;;;;;;;;5022081;28;20033;-77
2022/05/27 10:29:51;;;;;;;2.80;0.95;;;;;;;;;;5029598;28;19913;-75
2022/05/27 10:32:26;;;;;;;3.30;1.58;;;;;;;;;;5030629;28;20064;-75
2022/05/27 10:34:52;;;;;;;4.40;1.30;;;;;;;;;;5025720;28;20094;-75
2022/05/27 10:37:40;;;;;;;4.40;1.40;;;;;;;;;;5041254;28;20260;-73
2022/05/27 10:40:30;;;;;;;5.15;1.48;;;;;;;;;;5027379;28;20056;-73
2022/05/27 10:43:11;;;;;;;5.15;1.35;;;;;;;;;;5038819;28;20025;-74
2022/05/27 10:45:56;;;;;;;7.82;1.55;;;;;;;;;;5040807;28;20060;-73
2022/05/27 10:48:59;;;;;;;2.92;1.40;;;;;;;;;;5025951;28;20052;-74
2022/05/27 10:51:33;;;;;;;5.28;1.70;;;;;;;;;;5025690;28;20043;-74
2022/05/27 10:54:34;;;;;;;4.28;1.33;;;;;;;;;;5028769;28;20033;-73
2022/05/27 11:03:21;;;;;;;5.38;1.50;;;;;;;;;;5041986;28;20507;-72
2022/05/27 11:06:07;;;;;;;1.80;1.63;;;;;;;;;;5027051;28;20013;-73
2022/05/27 11:08:33;;;;;;;8.70;1.90;;;;;;;;;;5032252;28;20029;-73
2022/05/27 11:11:11;;;;;;;2.25;1.40;;;;;;;;;;5025660;28;20037;-73
2022/05/27 11:17:33;;;;;;;3.67;1.60;;;;;;;;;;4984563;28;20113;-74
2022/05/27 11:20:19;;;;;;;7.07;1.92;;;;;;;;;;5039696;28;20029;-73
2022/05/27 11:23:11;;;;;;;1.90;1.70;;;;;;;;;;5027739;28;20029;-72
2022/05/27 11:26:28;;;;;;;6.43;1.80;;;;;;;;;;5007425;28;20400;-73
2022/05/27 11:29:27;;;;;;;5.30;1.55;;;;;;;;;;5028377;28;20804;-73
2022/05/27 11:32:07;;;;;;;3.88;1.42;;;;;;;;;;5011975;28;20032;-73
2022/05/27 11:35:07;;;;;;;3.45;1.67;;;;;;;;;;5020716;28;20123;-73
2022/05/27 11:37:57;;;;;;;3.55;1.35;;;;;;;;;;5047184;28;20025;-72
2022/05/27 11:40:30;;;;;;;;;;;;;;;;;;5044836;28;20116;-74
2022/05/27 11:42:56;;;;;;;;;;;;;;;;;;5031133;28;20349;-72
2022/05/27 11:45:27;;;;;;;6.32;1.30;;;;;;;;;;5033960;28;19927;-75
2022/05/27 11:48:35;;;;;;;4.90;1.75;;;;;;;;;;5038060;28;20017;-72
2022/05/27 11:51:20;;;;;;;1.05;0.95;;;;;;;;;;5018286;28;20122;-71
2022/05/27 11:54:19;;;;;;;2.20;1.23;;;;;;;;;;5011510;28;20116;-71
2022/05/27 11:56:57;;;;;;;2.53;1.17;;;;;;;;;;5017559;28;20116;-73
2022/05/27 11:59:31;;;;;;;1.30;1.20;;;;;;;;;;5027920;28;20421;-74
2022/05/27 12:02:09;;;;;;;3.83;1.15;;;;;;;;;;5034823;28;20446;-73
2022/05/27 12:04:48;;;;;;;2.20;1.13;;;;;;;;;;5024323;28;20326;-74
2022/05/27 12:07:31;;;;;;;6.40;1.75;;;;;;;;;;5014293;28;20060;-73
2022/05/27 12:10:20;;;;;;;1.85;1.33;;;;;;;;;;5008283;28;20030;-73
2022/05/27 12:12:53;;;;;;;2.05;0.98;;;;;;;;;;5031812;28;20021;-73
2022/05/27 12:15:44;;;;;;;1.02;0.70;;;;;;;;;;5024171;28;20037;-72
2022/05/27 12:18:21;;;;;;;1.75;1.00;;;;;;;;;;5033769;28;20064;-73
2022/05/27 12:20:48;;;;;;;7.88;1.60;;;;;;;;;;5045429;28;20021;-73
2022/05/27 12:23:14;;;;;;;1.20;1.10;;;;;;;;;;5044560;28;20029;-72
2022/05/27 12:25:46;;;;;;;3.53;1.63;;;;;;;;;;5033531;28;20040;-72
2022/05/27 12:28:15;;;;;;;1.83;0.93;;;;;;;;;;5042175;28;20097;-73
2022/05/27 12:30:43;;;;;;;3.75;0.90;;;;;;;;;;5038132;28;20509;-72
2022/05/27 12:33:19;;;;;;;0.93;0.90;;;;;;;;;;5045486;28;20025;-74
2022/05/27 12:36:05;;;;;;;1.95;1.05;;;;;;;;;;5018807;28;20021;-74
2022/05/27 12:38:34;;;;;;;1.13;0.80;;;;;;;;;;5036160;28;20087;-74
2022/05/27 12:41:04;;;;;;;2.58;0.70;;;;;;;;;;5036846;28;20033;-73
2022/05/27 12:43:37;;;;;;;1.35;1.17;;;;;;;;;;5046339;28;20112;-74
2022/05/27 12:46:03;;;;;;;3.65;1.10;;;;;;;;;;5023186;28;20036;-74
2022/05/27 12:48:31;;;;;;;3.03;1.17;;;;;;;;;;5027301;28;20543;-73
2022/05/27 12:51:00;;;;;;;4.15;1.45;;;;;;;;;;5026145;28;20029;-73
2022/05/27 12:53:51;;;;;;;3.88;1.55;;;;;;;;;;5025933;28;20048;-73
2022/05/27 13:02:18;;;;;;;2.67;1.38;;;;;;;;;;5019667;28;20551;-72
2022/05/27 13:04:52;;;;;;;3.75;1.17;;;;;;;;;;5025015;28;20055;-72
2022/05/27 13:07:43;;;;;;;4.57;1.50;;;;;;;;;;5029098;28;20087;-73
2022/05/27 13:10:17;;;;;;;1.52;1.20;;;;;;;;;;5033040;28;20071;-73
2022/05/27 13:12:48;;;;;;;2.53;1.70;;;;;;;;;;5032132;28;20036;-73
2022/05/27 13:15:14;;;;;;;1.35;1.25;;;;;;;;;;5024323;28;20108;-73
2022/05/27 13:17:45;;;;;;;2.72;1.08;;;;;;;;;;5027268;28;20143;-73
2022/05/27 13:20:22;;;;;;;2.25;1.27;;;;;;;;;;5028824;28;20025;-74
2022/05/27 13:23:14;;;;;;;1.23;1.13;;;;;;;;;;5013212;28;20041;-73
2022/05/27 13:25:43;;;;;;;2.92;1.20;;;;;;;;;;5012558;28;20454;-72
2022/05/27 13:28:22;;;;;;;1.70;1.35;;;;;;;;;;5010939;28;20517;-74
2022/05/27 13:31:10;;;;;;;2.75;1.67;;;;;;;;;;5010154;28;20029;-73
2022/05/27 13:33:44;;;;;;;4.20;1.52;;;;;;;;;;5009455;28;20076;-73
2022/05/27 13:36:18;;;;;;;2.33;1.60;;;;;;;;;;5009628;28;20048;-71
2022/05/27 13:38:52;;;;;;;2.40;1.63;;;;;;;;;;5010140;28;20172;-72
2022/05/27 13:41:18;;;;;;;2.47;1.10;;;;;;;;;;5009823;28;20033;-71
2022/05/27 13:43:47;;;;;;;3.22;1.17;;;;;;;;;;5010142;28;20025;-71
2022/05/27 13:46:22;;;;;;;2.53;1.50;;;;;;;;;;5010216;28;20068;-72
2022/05/27 13:49:15;;;;;;;2.55;1.98;;;;;;;;;;5010496;28;20018;-73
2022/05/27 13:51:44;;;;;;;4.90;1.80;;;;;;;;;;4993429;28;20474;-72
2022/05/27 13:54:17;;;;;;;21.10;3.78;;;;;;;;;;5008808;28;20048;-73
2022/05/27 13:57:05;;;;;;;4.90;2.25;;;;;;;;;;5009506;28;20048;-72
2022/05/27 13:59:35;;;;;;;4.90;1.58;;;;;;;;;;5009183;28;20054;-72
2022/05/27 14:02:04;;;;;;;2.97;2.67;;;;;;;;;;5010891;28;20327;-72
2022/05/27 14:04:40;;;;;;;7.10;1.80;;;;;;;;;;5010946;28;20459;-72
2022/05/27 14:07:17;;;;;;;5.65;2.60;;;;;;;;;;5010536;28;20394;-72
2022/05/27 14:09:47;;;;;;;5.15;2.80;;;;;;;;;;5009148;28;20048;-72
2022/05/27 14:12:17;;;;;;;10.65;4.72;;;;;;;;;;5010843;28;20104;-72
2022/05/27 14:14:54;;;;;;;12.80;3.58;;;;;;;;;;5009638;28;20060;-72
2022/05/27 14:17:21;;;;;;;4.60;2.25;;;;;;;;;;5009161;28;20398;-72
2022/05/27 14:19:59;;;;;;;3.35;2.03;;;;;;;;;;5009045;28;20037;-74
2022/05/27 14:22:43;;;;;;;5.28;2.20;;;;;;;;;;5010866;28;20030;-73
2022/05/27 14:25:22;;;;;;;2.83;1.83;;;;;;;;;;5009116;28;20386;-72
2022/05/27 14:27:53;;;;;;;3.28;2.00;;;;;;;;;;5009367;28;20504;-73
2022/05/27 14:30:35;;;;;;;6.40;3.00;;;;;;;;;;5009059;28;20033;-73
2022/05/27 14:33:02;;;;;;;3.03;2.38;;;;;;;;;;5008915;28;20484;-73
2022/05/27 14:35:31;;;;;;;6.20;2.70;;;;;;;;;;5008983;28;20141;-73
2022/05/27 14:38:06;;;;;;;4.93;3.60;;;;;;;;;;5008467;28;20021;-72
2022/05/27 14:40:39;;;;;;;2.65;1.63;;;;;;;;;;5008757;28;20051;-71
2022/05/27 14:43:35;;;;;;;1.83;1.60;;;;;;;;;;5008604;28;20454;-72
2022/05/27 14:46:30;;;;;;;1.90;1.58;;;;;;;;;;5004168;28;20272;-73
2022/05/27 14:49:29;;;;;;;3.45;1.40;;;;;;;;;;5009885;28;20414;-72
2022/05/27 14:51:56;;;;;;;2.05;1.45;;;;;;;;;;5008665;28;20033;-72
2022/05/27 14:54:33;;;;;;;1.65;1.55;;;;;;;;;;4992476;28;20128;-73
2022/05/27 14:57:27;;;;;;;3.75;1.65;;;;;;;;;;5010038;28;20064;-72
2022/05/27 15:00:05;;;;;;;3.67;1.58;;;;;;;;;;5009681;28;20598;-72
2022/05/27 15:02:47;;;;;;;4.18;1.67;;;;;;;;;;5008802;28;20398;-72
2022/05/27 15:05:35;;;;;;;2.95;2.00;;;;;;;;;;5008487;28;20034;-74
2022/05/27 15:08:05;;;;;;;3.85;2.65;;;;;;;;;;4992277;28;20036;-71
2022/05/27 15:10:39;;;;;;;3.72;1.60;;;;;;;;;;5009548;28;20022;-72
2022/05/27 15:13:23;;;;;;;4.03;1.67;;;;;;;;;;5009313;28;20341;-72
2022/05/27 15:15:48;;;;;;;1.83;1.23;;;;;;;;;;5008336;28;20058;-71
2022/05/27 15:18:22;;;;;;;4.20;1.70;;;;;;;;;;5009480;28;20430;-72
2022/05/27 15:21:04;;;;;;;2.78;1.70;;;;;;;;;;5009758;28;20034;-72
2022/05/27 15:23:34;;;;;;;;;;;;;;;;;;5010122;28;20037;-71
2022/05/27 15:34:42;;;;;;;2.25;1.52;;;;;;;;;;5009701;28;20409;-72
2022/05/27 15:37:07;;;;;;;2.90;1.23;;;;;;;;;;5009276;28;20080;-73
2022/05/27 15:39:33;;;;;;;2.53;1.48;;;;;;;;;;5009111;28;20026;-72
2022/05/27 15:41:59;;;;;;;3.53;1.80;;;;;;;;;;5009417;28;20057;-72
2022/05/27 15:44:25;;;;;;;2.70;1.40;;;;;;;;;;5008343;28;20033;-72
2022/05/27 15:46:51;;;;;;;4.00;1.67;;;;;;;;;;5008045;28;20029;-72
2022/05/27 15:49:16;;;;;;;3.78;1.65;;;;;;;;;;5007485;28;20492;-72
2022/05/27 15:51:43;;;;;;;5.07;2.45;;;;;;;;;;5009326;28;20459;-72
2022/05/27 15:54:09;;;;;;;4.97;1.80;;;;;;;;;;5008909;28;20033;-73
2022/05/27 15:56:35;;;;;;;3.65;1.63;;;;;;;;;;5007273;28;20030;-73
2022/05/27 15:59:01;;;;;;;3.00;1.58;;;;;;;;;;5026938;28;20068;-72
2022/05/27 16:01:27;;;;;;;2.67;1.63;;;;;;;;;;5015394;28;20417;-73